Arklow Rogue — EIGD — position and weather

sailwx.info

Track history (hours):
 
Tides and Currents Weather Stations Pressure Air Temp Water Temp Dewpoint Dewpoint Depression Visibility Wind Speed Wind Dir Waves Ship Positions

Arklow Rogue

Last reported at 2014-Dec-21 02:32 UTC. Time now 2014-Dec-21 02:38 UTC.
Position N 51°54' W 008°27'.

Length 90 m; draft 3.4 m.

Type: Cargo ship. MMSI: 250000960.

Date/timePositionNaut miles runAvg speedWind from/ knotsBaromVisibWave heightAir tempDewpointWater temp
2014-Dec-21 02:32N 51°54' W 008°27'0 0.0
2014-Dec-21 01:32N 51°54' W 008°27'0 0.0
2014-Dec-21 00:32N 51°54' W 008°27'0 0.0
2014-Dec-20 23:32N 51°54' W 008°27'0 0.0
2014-Dec-20 22:32N 51°54' W 008°27'0 0.0
2014-Dec-20 21:32N 51°54' W 008°27'0 0.0
2014-Dec-20 20:32N 51°54' W 008°27'0 0.3
2014-Dec-20 19:33N 51°54' W 008°27'5 4.6
2014-Dec-20 18:33N 51°53' W 008°20'7 6.7
2014-Dec-20 17:33N 51°46' W 008°16'0 0.1
2014-Dec-20 16:32N 51°46' W 008°16'2 2.5
2014-Dec-20 15:33N 51°45' W 008°12'9 9.3
2014-Dec-20 14:33N 51°44' W 007°57'8 8.2
2014-Dec-20 13:33N 51°43' W 007°44'1111.0
2014-Dec-20 12:33N 51°41' W 007°27'1210.9
2014-Dec-20 11:26N 51°40' W 007°07'1310.9
2014-Dec-20 10:13N 51°38' W 006°46'129 9.5
2014-Dec-19 20:33N 51°21' W 003°20'1212.0
2014-Dec-19 19:33N 51°26' W 003°02'1212.5
2014-Dec-19 18:33N 51°30' W 002°43'0 0.3
2014-Dec-19 17:33N 51°30' W 002°43'0 0.0
2014-Dec-19 16:32N 51°30' W 002°43'0 0.0
2014-Dec-19 15:32N 51°30' W 002°43'0 0.0
2014-Dec-19 14:32N 51°30' W 002°43'0 0.0
2014-Dec-19 13:32N 51°30' W 002°43'0 0.0
2014-Dec-19 12:32N 51°30' W 002°43'0 0.0
2014-Dec-19 11:32N 51°30' W 002°43'0 0.0
2014-Dec-19 10:32N 51°30' W 002°43'0 0.0
2014-Dec-19 09:32N 51°30' W 002°43'0 0.0
2014-Dec-19 08:32N 51°30' W 002°43'0 0.0
2014-Dec-19 07:32N 51°30' W 002°43'0 0.0
2014-Dec-19 06:32N 51°30' W 002°43'0 0.0
2014-Dec-19 05:32N 51°30' W 002°43'0 0.0
2014-Dec-19 04:32N 51°30' W 002°43'0 0.0
2014-Dec-19 03:32N 51°30' W 002°43'0 0.0
2014-Dec-19 02:32N 51°30' W 002°43'0 0.0
2014-Dec-19 01:32N 51°30' W 002°43'0 0.0
2014-Dec-19 00:32N 51°30' W 002°43'0 0.0
2014-Dec-18 23:32N 51°30' W 002°43'0 0.0
2014-Dec-18 22:32N 51°30' W 002°43'0 0.0
2014-Dec-18 21:32N 51°30' W 002°43'0 0.0
2014-Dec-18 20:32N 51°30' W 002°43'0 0.0
2014-Dec-18 19:32N 51°30' W 002°43'0 0.0
2014-Dec-18 18:32N 51°30' W 002°43'0 0.0
2014-Dec-18 17:32N 51°30' W 002°43'0 0.0
2014-Dec-18 16:32N 51°30' W 002°43'0 0.0
2014-Dec-18 15:32N 51°30' W 002°43'0 0.0
2014-Dec-18 14:32N 51°30' W 002°43'0 0.0
2014-Dec-18 13:32N 51°30' W 002°43'0 0.0
2014-Dec-18 12:32N 51°30' W 002°43'0 0.0
2014-Dec-18 11:32N 51°30' W 002°43'0 0.0
2014-Dec-18 10:32N 51°30' W 002°43'0 0.0
2014-Dec-18 09:32N 51°30' W 002°43'0 0.0
2014-Dec-18 08:32N 51°30' W 002°43'0 0.0
2014-Dec-18 07:32N 51°30' W 002°43'0 0.0
2014-Dec-18 06:32N 51°30' W 002°43'0 0.0
2014-Dec-18 05:32N 51°30' W 002°43'0 0.2
2014-Dec-18 04:33N 51°30' W 002°43'3 2.9
2014-Dec-18 03:33N 51°29' W 002°48'1211.8
2014-Dec-18 02:34N 51°24' W 003°04'1212.1
2014-Dec-18 01:33N 51°21' W 003°23'14710.5
2014-Dec-17 11:33N 51°40' W 007°18'1312.9
2014-Dec-17 10:33N 51°42' W 007°39'1312.9
2014-Dec-17 09:33N 51°44' W 007°59'1111.4
2014-Dec-17 08:33N 51°49' W 008°16'3 2.6
2014-Dec-17 07:32N 51°50' W 008°20'0 0.0
2014-Dec-17 06:32N 51°50' W 008°20'0 0.0
2014-Dec-17 05:32N 51°50' W 008°20'0 0.0
2014-Dec-17 04:32N 51°50' W 008°20'0 0.0
2014-Dec-17 03:29N 51°50' W 008°20'0 0.0
2014-Dec-17 02:32N 51°50' W 008°20'0 0.0
2014-Dec-17 01:32N 51°50' W 008°20'0 0.0
2014-Dec-17 00:32N 51°50' W 008°20'0 0.0
2014-Dec-16 23:32N 51°50' W 008°20'0 0.0
2014-Dec-16 22:32N 51°50' W 008°20'0 0.0
2014-Dec-16 21:32N 51°50' W 008°20'0 0.0
2014-Dec-16 20:32N 51°50' W 008°20'0 0.0
2014-Dec-16 19:32N 51°50' W 008°20'0 0.0
2014-Dec-16 18:32N 51°50' W 008°20'0 0.0
2014-Dec-16 17:29N 51°50' W 008°20'0 0.0
2014-Dec-16 16:32N 51°50' W 008°20'0 0.0
2014-Dec-16 15:32N 51°50' W 008°20'0 0.0
2014-Dec-16 14:32N 51°50' W 008°20'0 0.0
2014-Dec-16 13:32N 51°50' W 008°20'0 0.0
2014-Dec-16 12:32N 51°50' W 008°20'0 0.0
2014-Dec-16 11:32N 51°50' W 008°20'0 0.0
2014-Dec-16 10:32N 51°50' W 008°20'0 0.0
2014-Dec-16 09:32N 51°50' W 008°20'0 0.0
2014-Dec-16 08:32N 51°50' W 008°20'0 0.0
2014-Dec-16 07:32N 51°50' W 008°20'0 0.0
2014-Dec-16 06:32N 51°50' W 008°20'0 0.0
2014-Dec-16 05:32N 51°50' W 008°20'0 0.0
2014-Dec-16 04:30N 51°50' W 008°20'0 0.0
2014-Dec-16 03:32N 51°50' W 008°20'0 0.0
2014-Dec-16 02:30N 51°50' W 008°20'0 0.0
2014-Dec-16 01:05N 51°50' W 008°20'0 0.0
2014-Dec-16 00:31N 51°50' W 008°20'0 0.0
2014-Dec-15 23:32N 51°50' W 008°20'0 0.0
2014-Dec-15 22:32N 51°50' W 008°20'0 0.0
2014-Dec-15 21:32N 51°50' W 008°20'0 0.0
2014-Dec-15 20:32N 51°50' W 008°20'0 0.0
2014-Dec-15 19:32N 51°50' W 008°20'0 0.0
2014-Dec-15 18:29N 51°50' W 008°20'0 0.0
2014-Dec-15 17:32N 51°50' W 008°20'0 0.0
2014-Dec-15 16:32N 51°50' W 008°20'0 0.0
2014-Dec-15 15:32N 51°50' W 008°20'0 0.0
2014-Dec-15 14:32N 51°50' W 008°20'0 0.0
2014-Dec-15 13:32N 51°50' W 008°20'0 0.0
2014-Dec-15 12:32N 51°50' W 008°20'0 0.0
2014-Dec-15 11:32N 51°50' W 008°20'0 0.0
2014-Dec-15 10:32N 51°50' W 008°20'0 0.0
2014-Dec-15 09:32N 51°50' W 008°20'0 0.0
2014-Dec-15 08:29N 51°50' W 008°20'0 0.0
2014-Dec-15 07:32N 51°50' W 008°20'0 0.0
2014-Dec-15 06:32N 51°50' W 008°20'0 0.0
2014-Dec-15 05:32N 51°50' W 008°20'0 0.0
2014-Dec-15 04:32N 51°50' W 008°20'0 0.0
2014-Dec-15 03:32N 51°50' W 008°20'0 0.0
2014-Dec-15 02:32N 51°50' W 008°20'0 0.0
2014-Dec-15 01:32N 51°50' W 008°20'0 0.0
2014-Dec-15 00:32N 51°50' W 008°20'0 0.0
2014-Dec-14 23:33N 51°50' W 008°20'3 3.3
2014-Dec-14 22:33N 51°48' W 008°16'1111.0
2014-Dec-14 21:33N 51°39' W 008°06'1111.2
2014-Dec-14 20:34N 51°30' W 007°54'1110.7
2014-Dec-14 19:33N 51°23' W 007°41'242 9.2
2014-Dec-13 17:09N 50°23' W 001°29'5711.6
2014-Dec-13 12:16N 50°32' W 000°01'2110.9
2014-Dec-13 10:19N 50°37' E 000°31'912.2
2014-Dec-13 09:33N 50°42' E 000°44'1312.8
2014-Dec-13 08:30N 50°50' E 001°01'1212.6
2014-Dec-13 07:33N 50°58' E 001°15'1211.9
2014-Dec-13 06:33N 51°05' E 001°30'1110.7
2014-Dec-13 05:33N 51°12' E 001°43'1010.4
2014-Dec-13 04:33N 51°20' E 001°53'1110.8
2014-Dec-13 03:33N 51°30' E 002°02'1211.6
2014-Dec-13 02:34N 51°38' E 002°15'1312.4
2014-Dec-13 01:31N 51°48' E 002°29'4410.7
2014-Dec-12 21:24N 52°04' E 003°35'910.4
2014-Dec-12 20:34N 52°04' E 003°49'10 9.6
2014-Dec-12 19:33N 51°60' E 004°03'1110.6
2014-Dec-12 18:33N 51°54' E 004°18'8 8.0
2014-Dec-12 17:33N 51°50' E 004°29'6 6.4
2014-Dec-12 16:33N 51°48' E 004°39'0 0.0
2014-Dec-12 15:31N 51°48' E 004°39'0 0.0
2014-Dec-12 14:31N 51°48' E 004°39'0 0.0
2014-Dec-12 13:31N 51°48' E 004°39'0 0.0
2014-Dec-12 12:31N 51°48' E 004°39'0 0.0
2014-Dec-12 11:31N 51°48' E 004°39'0 0.0
2014-Dec-12 10:31N 51°48' E 004°39'0 0.0
2014-Dec-12 09:31N 51°48' E 004°39'0 0.0
2014-Dec-12 08:31N 51°48' E 004°39'0 0.0
2014-Dec-12 07:31N 51°48' E 004°39'0 0.0
2014-Dec-12 06:31N 51°48' E 004°39'0 0.0
2014-Dec-12 05:31N 51°48' E 004°39'0 0.0
2014-Dec-12 04:31N 51°48' E 004°39'0 0.0
2014-Dec-12 03:31N 51°48' E 004°39'0 0.0
2014-Dec-12 02:31N 51°48' E 004°39'0 0.0
2014-Dec-12 01:31N 51°48' E 004°39'0 0.0
2014-Dec-12 00:31N 51°48' E 004°39'0 0.0
2014-Dec-11 23:31N 51°48' E 004°39'0 0.0
2014-Dec-11 22:31N 51°48' E 004°39'0 0.0
2014-Dec-11 21:33N 51°48' E 004°39'1 1.1
2014-Dec-11 20:34N 51°47' E 004°38'5 4.0
2014-Dec-11 19:12N 51°42' E 004°35'0 0.0
2014-Dec-11 18:33N 51°42' E 004°35'0 0.0
2014-Dec-11 17:33N 51°42' E 004°35'0 0.0
2014-Dec-11 16:24N 51°42' E 004°35'0 0.0
2014-Dec-11 15:33N 51°42' E 004°35'0 0.0
2014-Dec-11 14:33N 51°42' E 004°35'0 0.0
2014-Dec-11 13:33N 51°42' E 004°35'0 0.0
2014-Dec-11 12:33N 51°42' E 004°35'0 0.0
2014-Dec-11 11:33N 51°42' E 004°35'0 0.0
2014-Dec-11 10:24N 51°42' E 004°35'0 0.0
2014-Dec-11 09:12N 51°42' E 004°35'0 0.0
2014-Dec-11 08:09N 51°42' E 004°35'0 0.0
2014-Dec-11 07:30N 51°42' E 004°35'0 0.0
2014-Dec-11 06:21N 51°42' E 004°35'0 0.0
2014-Dec-11 05:30N 51°42' E 004°35'0 0.0
2014-Dec-11 04:30N 51°42' E 004°35'0 0.0
2014-Dec-11 03:30N 51°42' E 004°35'  
Track history (hours):
 
Tides and Currents Weather Stations Pressure Air Temp Water Temp Dewpoint Dewpoint Depression Visibility Wind Speed Wind Dir Waves Ship Positions

Arklow Rogue

Last reported at 2014-Dec-21 02:32 UTC. Time now 2014-Dec-21 02:38 UTC.
Position N 51°54' W 008°27'.

Length 90 m; draft 3.4 m.

Type: Cargo ship. MMSI: 250000960.

Date/timePositionNaut miles runAvg speedWind from/ knotsBaromVisibWave heightAir tempDewpointWater temp
2014-Dec-21 02:32N 51°54' W 008°27'0 0.0
2014-Dec-21 01:32N 51°54' W 008°27'0 0.0
2014-Dec-21 00:32N 51°54' W 008°27'0 0.0
2014-Dec-20 23:32N 51°54' W 008°27'0 0.0
2014-Dec-20 22:32N 51°54' W 008°27'0 0.0
2014-Dec-20 21:32N 51°54' W 008°27'0 0.0
2014-Dec-20 20:32N 51°54' W 008°27'0 0.3
2014-Dec-20 19:33N 51°54' W 008°27'5 4.6
2014-Dec-20 18:33N 51°53' W 008°20'7 6.7
2014-Dec-20 17:33N 51°46' W 008°16'0 0.1
2014-Dec-20 16:32N 51°46' W 008°16'2 2.5
2014-Dec-20 15:33N 51°45' W 008°12'9 9.3
2014-Dec-20 14:33N 51°44' W 007°57'8 8.2
2014-Dec-20 13:33N 51°43' W 007°44'1111.0
2014-Dec-20 12:33N 51°41' W 007°27'1210.9
2014-Dec-20 11:26N 51°40' W 007°07'1310.9
2014-Dec-20 10:13N 51°38' W 006°46'129 9.5
2014-Dec-19 20:33N 51°21' W 003°20'1212.0
2014-Dec-19 19:33N 51°26' W 003°02'1212.5
2014-Dec-19 18:33N 51°30' W 002°43'0 0.3
2014-Dec-19 17:33N 51°30' W 002°43'0 0.0
2014-Dec-19 16:32N 51°30' W 002°43'0 0.0
2014-Dec-19 15:32N 51°30' W 002°43'0 0.0
2014-Dec-19 14:32N 51°30' W 002°43'0 0.0
2014-Dec-19 13:32N 51°30' W 002°43'0 0.0
2014-Dec-19 12:32N 51°30' W 002°43'0 0.0
2014-Dec-19 11:32N 51°30' W 002°43'0 0.0
2014-Dec-19 10:32N 51°30' W 002°43'0 0.0
2014-Dec-19 09:32N 51°30' W 002°43'0 0.0
2014-Dec-19 08:32N 51°30' W 002°43'0 0.0
2014-Dec-19 07:32N 51°30' W 002°43'0 0.0
2014-Dec-19 06:32N 51°30' W 002°43'0 0.0
2014-Dec-19 05:32N 51°30' W 002°43'0 0.0
2014-Dec-19 04:32N 51°30' W 002°43'0 0.0
2014-Dec-19 03:32N 51°30' W 002°43'0 0.0
2014-Dec-19 02:32N 51°30' W 002°43'0 0.0
2014-Dec-19 01:32N 51°30' W 002°43'0 0.0
2014-Dec-19 00:32N 51°30' W 002°43'0 0.0
2014-Dec-18 23:32N 51°30' W 002°43'0 0.0
2014-Dec-18 22:32N 51°30' W 002°43'0 0.0
2014-Dec-18 21:32N 51°30' W 002°43'0 0.0
2014-Dec-18 20:32N 51°30' W 002°43'0 0.0
2014-Dec-18 19:32N 51°30' W 002°43'0 0.0
2014-Dec-18 18:32N 51°30' W 002°43'0 0.0
2014-Dec-18 17:32N 51°30' W 002°43'0 0.0
2014-Dec-18 16:32N 51°30' W 002°43'0 0.0
2014-Dec-18 15:32N 51°30' W 002°43'0 0.0
2014-Dec-18 14:32N 51°30' W 002°43'0 0.0
2014-Dec-18 13:32N 51°30' W 002°43'0 0.0
2014-Dec-18 12:32N 51°30' W 002°43'0 0.0
2014-Dec-18 11:32N 51°30' W 002°43'0 0.0
2014-Dec-18 10:32N 51°30' W 002°43'0 0.0
2014-Dec-18 09:32N 51°30' W 002°43'0 0.0
2014-Dec-18 08:32N 51°30' W 002°43'0 0.0
2014-Dec-18 07:32N 51°30' W 002°43'0 0.0
2014-Dec-18 06:32N 51°30' W 002°43'0 0.0
2014-Dec-18 05:32N 51°30' W 002°43'0 0.2
2014-Dec-18 04:33N 51°30' W 002°43'3 2.9
2014-Dec-18 03:33N 51°29' W 002°48'1211.8
2014-Dec-18 02:34N 51°24' W 003°04'1212.1
2014-Dec-18 01:33N 51°21' W 003°23'14710.5
2014-Dec-17 11:33N 51°40' W 007°18'1312.9
2014-Dec-17 10:33N 51°42' W 007°39'1312.9
2014-Dec-17 09:33N 51°44' W 007°59'1111.4
2014-Dec-17 08:33N 51°49' W 008°16'3 2.6
2014-Dec-17 07:32N 51°50' W 008°20'0 0.0
2014-Dec-17 06:32N 51°50' W 008°20'0 0.0
2014-Dec-17 05:32N 51°50' W 008°20'0 0.0
2014-Dec-17 04:32N 51°50' W 008°20'0 0.0
2014-Dec-17 03:29N 51°50' W 008°20'0 0.0
2014-Dec-17 02:32N 51°50' W 008°20'0 0.0
2014-Dec-17 01:32N 51°50' W 008°20'0 0.0
2014-Dec-17 00:32N 51°50' W 008°20'0 0.0
2014-Dec-16 23:32N 51°50' W 008°20'0 0.0
2014-Dec-16 22:32N 51°50' W 008°20'0 0.0
2014-Dec-16 21:32N 51°50' W 008°20'0 0.0
2014-Dec-16 20:32N 51°50' W 008°20'0 0.0
2014-Dec-16 19:32N 51°50' W 008°20'0 0.0
2014-Dec-16 18:32N 51°50' W 008°20'0 0.0
2014-Dec-16 17:29N 51°50' W 008°20'0 0.0
2014-Dec-16 16:32N 51°50' W 008°20'0 0.0
2014-Dec-16 15:32N 51°50' W 008°20'0 0.0
2014-Dec-16 14:32N 51°50' W 008°20'0 0.0
2014-Dec-16 13:32N 51°50' W 008°20'0 0.0
2014-Dec-16 12:32N 51°50' W 008°20'0 0.0
2014-Dec-16 11:32N 51°50' W 008°20'0 0.0
2014-Dec-16 10:32N 51°50' W 008°20'0 0.0
2014-Dec-16 09:32N 51°50' W 008°20'0 0.0
2014-Dec-16 08:32N 51°50' W 008°20'0 0.0
2014-Dec-16 07:32N 51°50' W 008°20'0 0.0
2014-Dec-16 06:32N 51°50' W 008°20'0 0.0
2014-Dec-16 05:32N 51°50' W 008°20'0 0.0
2014-Dec-16 04:30N 51°50' W 008°20'0 0.0
2014-Dec-16 03:32N 51°50' W 008°20'0 0.0
2014-Dec-16 02:30N 51°50' W 008°20'0 0.0
2014-Dec-16 01:05N 51°50' W 008°20'0 0.0
2014-Dec-16 00:31N 51°50' W 008°20'0 0.0
2014-Dec-15 23:32N 51°50' W 008°20'0 0.0
2014-Dec-15 22:32N 51°50' W 008°20'0 0.0
2014-Dec-15 21:32N 51°50' W 008°20'0 0.0
2014-Dec-15 20:32N 51°50' W 008°20'0 0.0
2014-Dec-15 19:32N 51°50' W 008°20'0 0.0
2014-Dec-15 18:29N 51°50' W 008°20'0 0.0
2014-Dec-15 17:32N 51°50' W 008°20'0 0.0
2014-Dec-15 16:32N 51°50' W 008°20'0 0.0
2014-Dec-15 15:32N 51°50' W 008°20'0 0.0
2014-Dec-15 14:32N 51°50' W 008°20'0 0.0
2014-Dec-15 13:32N 51°50' W 008°20'0 0.0
2014-Dec-15 12:32N 51°50' W 008°20'0 0.0
2014-Dec-15 11:32N 51°50' W 008°20'0 0.0
2014-Dec-15 10:32N 51°50' W 008°20'0 0.0
2014-Dec-15 09:32N 51°50' W 008°20'0 0.0
2014-Dec-15 08:29N 51°50' W 008°20'0 0.0
2014-Dec-15 07:32N 51°50' W 008°20'0 0.0
2014-Dec-15 06:32N 51°50' W 008°20'0 0.0
2014-Dec-15 05:32N 51°50' W 008°20'0 0.0
2014-Dec-15 04:32N 51°50' W 008°20'0 0.0
2014-Dec-15 03:32N 51°50' W 008°20'0 0.0
2014-Dec-15 02:32N 51°50' W 008°20'0 0.0
2014-Dec-15 01:32N 51°50' W 008°20'0 0.0
2014-Dec-15 00:32N 51°50' W 008°20'0 0.0
2014-Dec-14 23:33N 51°50' W 008°20'3 3.3
2014-Dec-14 22:33N 51°48' W 008°16'1111.0
2014-Dec-14 21:33N 51°39' W 008°06'1111.2
2014-Dec-14 20:34N 51°30' W 007°54'1110.7
2014-Dec-14 19:33N 51°23' W 007°41'242 9.2
2014-Dec-13 17:09N 50°23' W 001°29'5711.6
2014-Dec-13 12:16N 50°32' W 000°01'2110.9
2014-Dec-13 10:19N 50°37' E 000°31'912.2
2014-Dec-13 09:33N 50°42' E 000°44'1312.8
2014-Dec-13 08:30N 50°50' E 001°01'1212.6
2014-Dec-13 07:33N 50°58' E 001°15'1211.9
2014-Dec-13 06:33N 51°05' E 001°30'1110.7
2014-Dec-13 05:33N 51°12' E 001°43'1010.4
2014-Dec-13 04:33N 51°20' E 001°53'1110.8
2014-Dec-13 03:33N 51°30' E 002°02'1211.6
2014-Dec-13 02:34N 51°38' E 002°15'1312.4
2014-Dec-13 01:31N 51°48' E 002°29'4410.7
2014-Dec-12 21:24N 52°04' E 003°35'910.4
2014-Dec-12 20:34N 52°04' E 003°49'10 9.6
2014-Dec-12 19:33N 51°60' E 004°03'1110.6
2014-Dec-12 18:33N 51°54' E 004°18'8 8.0
2014-Dec-12 17:33N 51°50' E 004°29'6 6.4
2014-Dec-12 16:33N 51°48' E 004°39'0 0.0
2014-Dec-12 15:31N 51°48' E 004°39'0 0.0
2014-Dec-12 14:31N 51°48' E 004°39'0 0.0
2014-Dec-12 13:31N 51°48' E 004°39'0 0.0
2014-Dec-12 12:31N 51°48' E 004°39'0 0.0
2014-Dec-12 11:31N 51°48' E 004°39'0 0.0
2014-Dec-12 10:31N 51°48' E 004°39'0 0.0
2014-Dec-12 09:31N 51°48' E 004°39'0 0.0
2014-Dec-12 08:31N 51°48' E 004°39'0 0.0
2014-Dec-12 07:31N 51°48' E 004°39'0 0.0
2014-Dec-12 06:31N 51°48' E 004°39'0 0.0
2014-Dec-12 05:31N 51°48' E 004°39'0 0.0
2014-Dec-12 04:31N 51°48' E 004°39'0 0.0
2014-Dec-12 03:31N 51°48' E 004°39'0 0.0
2014-Dec-12 02:31N 51°48' E 004°39'0 0.0
2014-Dec-12 01:31N 51°48' E 004°39'0 0.0
2014-Dec-12 00:31N 51°48' E 004°39'0 0.0
2014-Dec-11 23:31N 51°48' E 004°39'0 0.0
2014-Dec-11 22:31N 51°48' E 004°39'0 0.0
2014-Dec-11 21:33N 51°48' E 004°39'1 1.1
2014-Dec-11 20:34N 51°47' E 004°38'5 4.0
2014-Dec-11 19:12N 51°42' E 004°35'0 0.0
2014-Dec-11 18:33N 51°42' E 004°35'0 0.0
2014-Dec-11 17:33N 51°42' E 004°35'0 0.0
2014-Dec-11 16:24N 51°42' E 004°35'0 0.0
2014-Dec-11 15:33N 51°42' E 004°35'0 0.0
2014-Dec-11 14:33N 51°42' E 004°35'0 0.0
2014-Dec-11 13:33N 51°42' E 004°35'0 0.0
2014-Dec-11 12:33N 51°42' E 004°35'0 0.0
2014-Dec-11 11:33N 51°42' E 004°35'0 0.0
2014-Dec-11 10:24N 51°42' E 004°35'0 0.0
2014-Dec-11 09:12N 51°42' E 004°35'0 0.0
2014-Dec-11 08:09N 51°42' E 004°35'0 0.0
2014-Dec-11 07:30N 51°42' E 004°35'0 0.0
2014-Dec-11 06:21N 51°42' E 004°35'0 0.0
2014-Dec-11 05:30N 51°42' E 004°35'0 0.0
2014-Dec-11 04:30N 51°42' E 004°35'0 0.0
2014-Dec-11 03:30N 51°42' E 004°35'  

Dump ship's entire track history